createdAt,value
2023-05-02T00:02:03.063Z,88531.41
2023-05-02T00:04:47.964Z,88527.13
2023-05-02T00:07:33.071Z,88525.81
2023-05-02T00:10:17.971Z,88530.03
2023-05-02T00:13:03.056Z,88516.50
2023-05-02T00:15:48.042Z,88515.31
2023-05-02T00:18:33.084Z,88513.19
2023-05-02T00:21:18.101Z,88517.91
2023-05-02T00:24:03.114Z,88500.59
2023-05-02T00:26:48.126Z,88506.31
2023-05-02T00:29:33.026Z,88501.19
2023-05-02T00:32:18.120Z,88500.13
2023-05-02T00:35:03.123Z,88503.63
2023-05-02T00:37:48.065Z,88499.00
2023-05-02T00:40:33.052Z,88504.41
2023-05-02T00:43:18.103Z,88502.00
2023-05-02T00:46:03.129Z,88500.31
2023-05-02T00:48:48.223Z,88493.97
2023-05-02T00:51:33.333Z,88495.28
2023-05-02T00:54:18.233Z,88494.00
2023-05-02T00:57:03.273Z,88494.69
2023-05-02T00:59:48.183Z,88495.59
2023-05-02T01:02:33.329Z,88490.59
2023-05-02T01:05:18.059Z,88484.19
2023-05-02T01:08:03.088Z,88491.88
2023-05-02T01:10:48.146Z,88495.75
2023-05-02T01:13:33.090Z,88498.06
2023-05-02T01:16:18.211Z,88491.94
2023-05-02T01:19:03.046Z,88498.38
2023-05-02T01:21:48.164Z,88499.38
2023-05-02T01:24:33.102Z,88488.97
2023-05-02T01:27:18.237Z,88491.44
2023-05-02T01:30:03.208Z,88489.88
2023-05-02T01:32:48.196Z,88492.97
2023-05-02T01:35:33.305Z,88499.69
2023-05-02T01:38:18.378Z,88499.09
2023-05-02T01:41:03.423Z,88495.50
2023-05-02T01:43:48.345Z,88499.91
2023-05-02T01:46:33.511Z,88503.22
2023-05-02T01:49:18.332Z,88492.72
2023-05-02T01:52:03.432Z,88495.63
2023-05-02T01:54:48.300Z,88500.53
2023-05-02T01:57:33.245Z,88495.13
2023-05-02T02:00:18.408Z,88495.63
2023-05-02T02:03:03.354Z,88487.44
2023-05-02T02:05:48.439Z,88488.34
2023-05-02T02:08:33.471Z,88498.91
2023-05-02T02:11:18.486Z,88497.44
2023-05-02T02:14:03.542Z,88493.53
2023-05-02T02:16:48.688Z,88498.81
2023-05-02T02:19:33.631Z,88501.91
2023-05-02T02:22:18.600Z,88501.50
2023-05-02T02:25:03.784Z,88493.03
2023-05-02T02:27:48.753Z,88506.84
2023-05-02T02:30:33.847Z,88511.00
2023-05-02T02:33:18.749Z,88515.81
2023-05-02T02:36:03.832Z,88512.72
2023-05-02T02:38:48.760Z,88516.69
2023-05-02T02:41:33.737Z,88519.28
2023-05-02T02:44:18.857Z,88517.59
2023-05-02T02:47:03.956Z,88520.41
2023-05-02T02:49:49.041Z,88517.81
2023-05-02T02:52:33.991Z,88517.31
2023-05-02T02:55:19.083Z,88513.50
2023-05-02T02:58:03.979Z,88514.94
2023-05-02T03:00:49.048Z,88520.75
2023-05-02T03:03:34.105Z,88518.53
2023-05-02T03:06:19.073Z,88518.63
2023-05-02T03:09:04.125Z,88515.25
2023-05-02T03:11:49.135Z,88507.44
2023-05-02T03:14:34.229Z,88519.72
2023-05-02T03:17:19.123Z,88513.63
2023-05-02T03:20:04.134Z,88508.03
2023-05-02T03:22:49.102Z,88514.63
2023-05-02T03:25:34.180Z,88510.63
2023-05-02T03:28:19.281Z,88513.44
2023-05-02T03:31:04.264Z,88511.13
2023-05-02T03:33:49.395Z,88506.63
2023-05-02T03:36:34.047Z,88507.31
2023-05-02T03:39:19.245Z,88513.66
2023-05-02T03:42:04.066Z,88510.53
2023-05-02T03:44:49.233Z,88509.31
2023-05-02T03:47:34.149Z,88509.22
2023-05-02T03:50:18.907Z,88513.22
2023-05-02T03:53:04.000Z,88510.72
2023-05-02T03:55:48.990Z,88513.31
2023-05-02T03:58:34.036Z,88512.91
2023-05-02T04:01:19.003Z,88511.00
2023-05-02T04:04:04.060Z,88518.09
2023-05-02T04:06:49.151Z,88523.09
2023-05-02T04:09:34.092Z,88524.00
2023-05-02T04:12:19.003Z,88526.59
2023-05-02T04:15:03.888Z,88521.41
2023-05-02T04:17:48.977Z,88533.41
2023-05-02T04:20:33.972Z,88523.91
2023-05-02T04:23:19.141Z,88523.63
2023-05-02T04:26:04.011Z,88526.41
2023-05-02T04:28:49.251Z,88531.28
2023-05-02T04:31:34.349Z,88522.50
2023-05-02T04:34:19.322Z,88527.22
2023-05-02T04:37:04.499Z,88534.53
2023-05-02T04:39:49.261Z,88527.81
2023-05-02T04:42:34.372Z,88538.34
2023-05-02T04:45:19.362Z,88530.94
2023-05-02T04:48:04.355Z,88538.44
2023-05-02T04:50:50.364Z,88535.03
2023-05-02T04:53:35.129Z,88538.53
2023-05-02T04:56:20.159Z,88537.03
2023-05-02T04:59:05.092Z,88547.44
2023-05-02T05:01:50.331Z,88544.31
2023-05-02T05:04:35.034Z,88543.81
2023-05-02T05:07:20.226Z,88547.03
2023-05-02T05:10:05.260Z,88560.31
2023-05-02T05:12:50.346Z,88561.00
2023-05-02T05:15:35.424Z,88563.63
2023-05-02T05:18:20.350Z,88566.72
2023-05-02T05:21:05.470Z,88577.22
2023-05-02T05:23:50.359Z,88578.44
2023-05-02T05:26:35.524Z,88595.75
2023-05-02T05:29:20.509Z,88591.34
2023-05-02T05:32:05.591Z,88607.34
2023-05-02T05:34:50.482Z,88599.25
2023-05-02T05:37:35.624Z,88620.84
2023-05-02T05:40:20.753Z,88620.34
2023-05-02T05:43:05.735Z,88623.69
2023-05-02T05:45:50.828Z,88627.47
2023-05-02T05:48:35.710Z,88632.63
2023-05-02T05:51:20.859Z,88635.63
2023-05-02T05:54:05.856Z,88639.44
2023-05-02T05:56:50.941Z,88642.66
2023-05-02T05:59:35.861Z,88637.97
2023-05-02T06:02:20.828Z,88628.03
2023-05-02T06:05:05.890Z,88631.00
2023-05-02T06:07:50.893Z,88634.75
2023-05-02T06:10:35.889Z,88637.19
2023-05-02T06:13:20.863Z,88637.63
2023-05-02T06:16:06.123Z,88643.03
2023-05-02T06:18:51.037Z,88642.75
2023-05-02T06:21:36.076Z,88638.69
2023-05-02T06:24:21.017Z,88642.25
2023-05-02T06:27:05.907Z,88638.09
2023-05-02T06:29:51.153Z,88636.53
2023-05-02T06:32:36.076Z,88643.44
2023-05-02T06:35:21.186Z,88635.75
2023-05-02T06:38:06.167Z,88642.63
2023-05-02T06:40:51.187Z,88642.81
2023-05-02T06:43:36.157Z,88645.56
2023-05-02T06:46:21.363Z,88651.06
2023-05-02T06:49:06.220Z,88658.03
2023-05-02T06:51:51.047Z,88655.69
2023-05-02T06:54:36.252Z,88668.47
2023-05-02T06:57:21.080Z,88668.03
2023-05-02T07:00:06.111Z,88665.47
2023-05-02T07:02:51.013Z,88665.28
2023-05-02T07:05:35.992Z,88663.28
2023-05-02T07:08:20.892Z,88664.50
2023-05-02T07:11:05.938Z,88668.94
2023-05-02T07:13:50.884Z,88669.16
2023-05-02T07:16:35.986Z,88673.97
2023-05-02T07:19:21.091Z,88666.34
2023-05-02T07:22:05.971Z,88666.84
2023-05-02T07:24:51.169Z,88676.38
2023-05-02T07:27:36.122Z,88677.66
2023-05-02T07:30:21.198Z,88676.25
2023-05-02T07:33:06.270Z,88681.50
2023-05-02T07:35:51.128Z,88679.53
2023-05-02T07:38:36.394Z,88675.75
2023-05-02T07:41:21.384Z,88676.25
2023-05-02T07:44:06.577Z,88671.97
2023-05-02T07:46:51.543Z,88670.56
2023-05-02T07:49:36.712Z,88674.41
2023-05-02T07:52:21.718Z,88659.72
2023-05-02T07:55:06.748Z,88661.59
2023-05-02T07:57:51.900Z,88666.78
2023-05-02T08:00:36.908Z,88665.84
2023-05-02T08:03:22.170Z,88666.69
2023-05-02T08:06:07.040Z,88672.16
2023-05-02T08:08:51.980Z,88667.94
2023-05-02T08:11:36.921Z,88676.97
2023-05-02T08:14:21.959Z,88682.06
2023-05-02T08:17:06.980Z,88679.13
2023-05-02T08:19:51.933Z,88688.53
2023-05-02T08:22:37.154Z,88687.34
2023-05-02T08:25:22.124Z,88697.34
2023-05-02T08:28:07.334Z,88698.44
2023-05-02T08:30:52.298Z,88696.34
2023-05-02T08:33:37.345Z,88687.84
2023-05-02T08:36:22.406Z,88692.94
2023-05-02T08:39:07.292Z,88698.88
2023-05-02T08:41:52.357Z,88707.59
2023-05-02T08:44:37.225Z,88700.78
2023-05-02T08:47:22.299Z,88709.16
2023-05-02T08:50:07.204Z,88702.69
2023-05-02T08:52:52.235Z,88701.88
2023-05-02T08:55:37.210Z,88705.34
2023-05-02T08:58:22.228Z,88706.72
2023-05-02T09:01:07.278Z,88692.59
2023-05-02T09:03:52.230Z,88691.53
2023-05-02T09:06:37.279Z,88687.16
2023-05-02T09:09:22.096Z,88683.31
2023-05-02T09:12:07.177Z,88689.38
2023-05-02T09:14:52.169Z,88676.69
2023-05-02T09:17:37.322Z,88677.53
2023-05-02T09:20:22.413Z,88677.91
2023-05-02T09:23:07.260Z,88690.31
2023-05-02T09:25:52.243Z,88693.03
2023-05-02T09:28:37.299Z,88688.72
2023-05-02T09:31:37.628Z,88681.03
2023-05-02T09:34:27.378Z,88692.19
2023-05-02T09:37:12.343Z,88678.03
2023-05-02T09:39:57.505Z,88678.63
2023-05-02T09:42:42.506Z,88685.59
2023-05-02T09:45:27.476Z,88679.31
2023-05-02T09:48:12.367Z,88678.28
2023-05-02T09:50:57.573Z,88672.88
2023-05-02T09:53:42.493Z,88681.06
2023-05-02T09:56:27.579Z,88680.00
2023-05-02T09:59:12.642Z,88676.53
2023-05-02T10:01:57.694Z,88684.19
2023-05-02T10:04:42.843Z,88680.91
2023-05-02T10:07:28.085Z,88695.06
2023-05-02T10:10:13.087Z,88681.56
2023-05-02T10:12:58.064Z,88689.38
2023-05-02T10:15:43.183Z,88691.81
2023-05-02T10:18:28.121Z,88693.09
2023-05-02T10:21:13.113Z,88681.84
2023-05-02T10:23:58.249Z,88677.53
2023-05-02T10:26:43.073Z,88687.81
2023-05-02T10:29:28.047Z,88677.16
2023-05-02T10:32:12.970Z,88671.72
2023-05-02T10:34:58.342Z,88676.19
2023-05-02T10:37:43.186Z,88674.81
2023-05-02T10:40:28.212Z,88684.19
2023-05-02T10:43:13.267Z,88679.16
2023-05-02T10:45:58.112Z,88666.88
2023-05-02T10:48:43.232Z,88681.69
2023-05-02T10:51:28.241Z,88670.94
2023-05-02T10:54:13.349Z,88659.97
2023-05-02T10:56:58.307Z,88666.69
2023-05-02T10:59:43.312Z,88668.63
2023-05-02T11:02:28.648Z,88666.50
2023-05-02T11:05:13.314Z,88664.91
2023-05-02T11:07:58.480Z,88671.56
2023-05-02T11:10:43.569Z,88660.97
2023-05-02T11:13:28.695Z,88661.50
2023-05-02T11:16:13.777Z,88665.03
2023-05-02T11:18:58.916Z,88662.59
2023-05-02T11:21:43.792Z,88665.00
2023-05-02T11:24:28.812Z,88658.97
2023-05-02T11:27:13.835Z,88663.69
2023-05-02T11:29:58.862Z,88660.34
2023-05-02T11:32:43.946Z,88658.72
2023-05-02T11:35:28.862Z,88659.66
2023-05-02T11:38:13.963Z,88652.38
2023-05-02T11:40:59.000Z,88659.50
2023-05-02T11:43:44.029Z,88647.59
2023-05-02T11:46:29.035Z,88638.56
2023-05-02T11:49:15.172Z,88646.28
2023-05-02T11:52:00.275Z,88644.22
2023-05-02T11:54:45.320Z,88649.56
2023-05-02T11:57:30.419Z,88644.97
2023-05-02T12:00:15.404Z,88652.88
2023-05-02T12:03:00.583Z,88647.13
2023-05-02T12:05:45.517Z,88648.22
2023-05-02T12:08:30.354Z,88651.28
2023-05-02T12:11:15.431Z,88650.41
2023-05-02T12:14:00.327Z,88650.25
2023-05-02T12:16:45.438Z,88649.09
2023-05-02T12:19:30.349Z,88655.09
2023-05-02T12:22:15.475Z,88657.81
2023-05-02T12:25:00.687Z,88650.50
2023-05-02T12:27:45.657Z,88656.13
2023-05-02T12:30:30.650Z,88654.97
2023-05-02T12:33:15.697Z,88652.56
2023-05-02T12:36:00.782Z,88655.50
2023-05-02T12:38:45.659Z,88652.59
2023-05-02T12:41:30.751Z,88647.25
2023-05-02T12:44:15.864Z,88646.66
2023-05-02T12:47:00.983Z,88658.56
2023-05-02T12:49:45.947Z,88662.25
2023-05-02T12:52:30.889Z,88648.25
2023-05-02T12:55:16.047Z,88655.97
2023-05-02T12:58:00.908Z,88651.72
2023-05-02T13:00:47.800Z,88655.66
2023-05-02T13:03:32.971Z,88652.94
2023-05-02T13:06:17.974Z,88652.19
2023-05-02T13:09:02.903Z,88656.59
2023-05-02T13:11:47.635Z,88648.28
2023-05-02T13:14:32.647Z,88646.78
2023-05-02T13:17:17.866Z,88650.38
2023-05-02T13:20:02.851Z,88651.91
2023-05-02T13:22:47.820Z,88656.88
2023-05-02T13:25:32.909Z,88650.81
2023-05-02T13:28:17.818Z,88647.63
2023-05-02T13:31:02.951Z,88648.75
2023-05-02T13:33:47.929Z,88643.16
2023-05-02T13:36:32.770Z,88644.41
2023-05-02T13:39:17.889Z,88644.81
2023-05-02T13:42:03.731Z,88651.72
2023-05-02T13:44:50.231Z,88643.66
2023-05-02T13:47:35.219Z,88645.66
2023-05-02T13:50:20.179Z,88645.44
2023-05-02T13:53:05.253Z,88650.47
2023-05-02T13:55:50.220Z,88647.00
2023-05-02T13:58:35.314Z,88646.00
2023-05-02T14:01:20.302Z,88654.31
2023-05-02T14:04:05.522Z,88638.09
2023-05-02T14:06:50.448Z,88647.88
2023-05-02T14:09:35.338Z,88645.75
2023-05-02T14:12:20.397Z,88647.94
2023-05-02T14:15:05.362Z,88640.97
2023-05-02T14:17:50.449Z,88644.22
2023-05-02T14:20:35.293Z,88647.16
2023-05-02T14:23:20.411Z,88642.22
2023-05-02T14:26:05.484Z,88639.34
2023-05-02T14:28:50.287Z,88638.31
2023-05-02T14:31:35.336Z,88645.66
2023-05-02T14:34:20.263Z,88642.88
2023-05-02T14:37:05.389Z,88642.59
2023-05-02T14:39:51.692Z,88651.97
2023-05-02T14:42:38.918Z,88652.34
2023-05-02T14:45:23.937Z,88653.25
2023-05-02T14:48:08.919Z,88655.09
2023-05-02T14:50:53.910Z,88659.34
2023-05-02T14:53:38.759Z,88652.56
2023-05-02T14:56:23.811Z,88654.94
2023-05-02T14:59:08.929Z,88657.53
2023-05-02T15:01:53.798Z,88650.97
2023-05-02T15:04:38.780Z,88657.34
2023-05-02T15:07:23.970Z,88657.00
2023-05-02T15:10:08.872Z,88661.13
2023-05-02T15:12:53.807Z,88656.13
2023-05-02T15:15:39.024Z,88655.50
2023-05-02T15:18:24.040Z,88657.28
2023-05-02T15:21:09.144Z,88660.78
2023-05-02T15:23:53.975Z,88667.06
2023-05-02T15:26:38.974Z,88658.47
2023-05-02T15:29:23.780Z,88667.41
2023-05-02T15:32:08.724Z,88665.69
2023-05-02T15:34:53.686Z,88670.88
2023-05-02T15:37:38.687Z,88673.69
2023-05-02T15:40:23.668Z,88673.38
2023-05-02T15:43:08.537Z,88674.06
2023-05-02T15:45:53.501Z,88670.97
2023-05-02T15:48:38.374Z,88670.97
2023-05-02T15:51:23.311Z,88671.06
2023-05-02T15:54:08.295Z,88672.38
2023-05-02T15:56:53.316Z,88673.69
2023-05-02T15:59:38.490Z,88673.78
2023-05-02T16:02:23.514Z,88671.16
2023-05-02T16:05:08.652Z,88671.38
2023-05-02T16:07:53.666Z,88672.06
2023-05-02T16:10:38.720Z,88685.13
2023-05-02T16:13:23.584Z,88679.53
2023-05-02T16:16:08.671Z,88680.25
2023-05-02T16:18:53.660Z,88680.25
2023-05-02T16:21:38.504Z,88680.41
2023-05-02T16:24:23.692Z,88686.44
2023-05-02T16:27:08.814Z,88684.13
2023-05-02T16:29:53.998Z,88685.72
2023-05-02T16:32:39.047Z,88681.63
2023-05-02T16:35:24.028Z,88691.66
2023-05-02T16:38:08.939Z,88685.84
2023-05-02T16:40:53.987Z,88690.56
2023-05-02T16:43:39.099Z,88690.16
2023-05-02T16:46:24.072Z,88692.97
2023-05-02T16:49:09.179Z,88705.50
2023-05-02T16:51:54.032Z,88705.50
2023-05-02T16:54:39.023Z,88707.97
2023-05-02T16:57:23.859Z,88705.88
2023-05-02T17:00:08.858Z,88699.91
2023-05-02T17:02:53.964Z,88715.00
2023-05-02T17:05:38.851Z,88710.13
2023-05-02T17:08:23.963Z,88714.19
2023-05-02T17:11:08.827Z,88704.19
2023-05-02T17:13:53.784Z,88710.78
2023-05-02T17:16:38.828Z,88700.88
2023-05-02T17:19:23.948Z,88703.63
2023-05-02T17:22:08.845Z,88715.47
2023-05-02T17:24:53.913Z,88710.72
2023-05-02T17:27:41.006Z,88714.31
2023-05-02T17:30:25.729Z,88715.00
2023-05-02T17:33:10.799Z,88719.97
2023-05-02T17:35:55.675Z,88718.78
2023-05-02T17:38:40.739Z,88721.19
2023-05-02T17:41:25.660Z,88724.91
2023-05-02T17:44:10.530Z,88722.88
2023-05-02T17:46:55.859Z,88720.06
2023-05-02T17:49:40.591Z,88724.03
2023-05-02T17:52:25.703Z,88719.66
2023-05-02T17:55:10.636Z,88715.88
2023-05-02T17:57:55.776Z,88721.38
2023-05-02T18:00:40.715Z,88717.78
2023-05-02T18:03:25.826Z,88722.44
2023-05-02T18:06:10.753Z,88723.91
2023-05-02T18:08:55.433Z,88725.72
2023-05-02T18:11:40.671Z,88723.03
2023-05-02T18:14:25.527Z,88723.47
2023-05-02T18:17:10.539Z,88723.19
2023-05-02T18:19:55.517Z,88722.41
2023-05-02T18:22:40.396Z,88729.81
2023-05-02T18:25:25.328Z,88731.22
2023-05-02T18:28:10.342Z,88735.78
2023-05-02T18:30:55.371Z,88733.38
2023-05-02T18:33:40.221Z,88725.72
2023-05-02T18:36:25.368Z,88729.38
2023-05-02T18:39:10.339Z,88743.22
2023-05-02T18:41:55.359Z,88743.06
2023-05-02T18:44:40.200Z,88738.88
2023-05-02T18:47:25.166Z,88746.91
2023-05-02T18:50:10.043Z,88751.97
2023-05-02T18:52:55.166Z,88756.88
2023-05-02T18:55:40.188Z,88759.66
2023-05-02T18:58:25.063Z,88762.44
2023-05-02T19:01:10.183Z,88768.56
2023-05-02T19:03:55.134Z,88764.72
2023-05-02T19:06:40.228Z,88757.00
2023-05-02T19:09:25.135Z,88760.50
2023-05-02T19:12:10.176Z,88762.78
2023-05-02T19:14:55.229Z,88764.34
2023-05-02T19:17:40.251Z,88768.00
2023-05-02T19:20:25.132Z,88772.69
2023-05-02T19:23:19.699Z,88772.53
2023-05-02T19:26:05.080Z,88776.16
2023-05-02T19:28:50.203Z,88775.63
2023-05-02T19:31:35.291Z,88781.34
2023-05-02T19:34:20.243Z,88787.63
2023-05-02T19:37:05.183Z,88796.84
2023-05-02T19:39:50.267Z,88802.38
2023-05-02T19:42:35.320Z,88795.78
2023-05-02T19:45:20.252Z,88809.19
2023-05-02T19:48:05.437Z,88810.69
2023-05-02T19:50:50.322Z,88818.34
2023-05-02T19:53:35.354Z,88804.72
2023-05-02T19:56:20.385Z,88811.84
2023-05-02T19:59:05.212Z,88813.78
2023-05-02T20:01:50.241Z,88818.13
2023-05-02T20:04:35.124Z,88815.13
2023-05-02T20:07:20.178Z,88825.03
2023-05-02T20:10:05.326Z,88835.31
2023-05-02T20:12:50.215Z,88827.53
2023-05-02T20:15:35.211Z,88824.88
2023-05-02T20:18:20.160Z,88819.97
2023-05-02T20:21:05.157Z,88818.31
2023-05-02T20:23:50.090Z,88823.34
2023-05-02T20:26:35.227Z,88817.91
2023-05-02T20:29:20.166Z,88826.59
2023-05-02T20:32:05.235Z,88821.88
2023-05-02T20:34:50.181Z,88827.25
2023-05-02T20:37:35.314Z,88820.94
2023-05-02T20:40:20.248Z,88822.09
2023-05-02T20:43:05.313Z,88815.78
2023-05-02T20:45:50.309Z,88819.44
2023-05-02T20:48:35.194Z,88822.88
2023-05-02T20:51:20.256Z,88820.06
2023-05-02T20:54:05.174Z,88813.28
2023-05-02T20:56:50.216Z,88817.34
2023-05-02T20:59:35.022Z,88815.75
2023-05-02T21:02:20.143Z,88805.81
2023-05-02T21:05:05.116Z,88823.38
2023-05-02T21:07:50.025Z,88819.91
2023-05-02T21:10:35.160Z,88812.75
2023-05-02T21:13:20.194Z,88813.94
2023-05-02T21:16:05.298Z,88817.03
2023-05-02T21:18:50.112Z,88814.09
2023-05-02T21:21:35.186Z,88817.19
2023-05-02T21:24:20.031Z,88824.75
2023-05-02T21:27:05.178Z,88816.25
2023-05-02T21:29:50.210Z,88821.28
2023-05-02T21:32:35.145Z,88819.00
2023-05-02T21:35:20.125Z,88828.22
2023-05-02T21:38:05.117Z,88820.81
2023-05-02T21:40:50.076Z,88818.50
2023-05-02T21:43:35.028Z,88814.00
2023-05-02T21:46:20.222Z,88819.03
2023-05-02T21:49:05.060Z,88822.13
2023-05-02T21:51:50.097Z,88825.63
2023-05-02T21:54:35.136Z,88823.84
2023-05-02T21:57:20.106Z,88820.84
2023-05-02T22:00:05.456Z,88823.06
2023-05-02T22:02:50.847Z,88816.78
2023-05-02T22:05:35.611Z,88816.06
2023-05-02T22:08:20.599Z,88818.28
2023-05-02T22:11:05.668Z,88820.81
2023-05-02T22:13:50.671Z,88818.88
2023-05-02T22:16:35.628Z,88821.63
2023-05-02T22:19:20.732Z,88820.03
2023-05-02T22:22:05.813Z,88819.41
2023-05-02T22:24:51.029Z,88827.22
2023-05-02T22:27:35.952Z,88821.09
2023-05-02T22:30:21.034Z,88822.81
2023-05-02T22:33:05.976Z,88823.13
2023-05-02T22:35:50.921Z,88826.41
2023-05-02T22:38:35.947Z,88828.44
2023-05-02T22:41:20.906Z,88826.03
2023-05-02T22:44:06.180Z,88834.66
2023-05-02T22:46:51.229Z,88833.75
2023-05-02T22:49:35.976Z,88830.94
2023-05-02T22:52:21.002Z,88835.28
2023-05-02T22:55:06.055Z,88836.84
2023-05-02T22:57:51.072Z,88836.78
2023-05-02T23:00:36.071Z,88837.47
2023-05-02T23:03:21.169Z,88840.06
2023-05-02T23:06:05.908Z,88843.50
2023-05-02T23:08:50.926Z,88834.56
2023-05-02T23:11:35.814Z,88837.69
2023-05-02T23:14:20.812Z,88841.78
2023-05-02T23:17:05.620Z,88833.28
2023-05-02T23:19:50.712Z,88834.28
2023-05-02T23:22:35.566Z,88822.25
2023-05-02T23:25:20.665Z,88832.16
2023-05-02T23:28:07.683Z,88831.47
2023-05-02T23:30:52.622Z,88840.28
2023-05-02T23:33:37.713Z,88835.38
2023-05-02T23:36:22.581Z,88835.38
2023-05-02T23:39:07.528Z,88838.28
2023-05-02T23:41:52.639Z,88838.78
2023-05-02T23:44:37.582Z,88838.56
2023-05-02T23:47:22.745Z,88833.75
2023-05-02T23:50:07.664Z,88829.34
2023-05-02T23:52:52.709Z,88837.19
2023-05-02T23:55:37.679Z,88829.44
2023-05-02T23:58:22.622Z,88833.25
